Marla Bay, Nevada
Current Conditions -  °F | °C
As of 11:53 PM on Monday 20 Oct 2014 (Local Time) from KTVL Reporting Station
Light Rain Light Rain  
Wind Chill: 35°   Ceiling: 2600
Heat Index: 41°   Visibility: 8mi
Dew Point: 35°   Wind: 10mph
Humidity: 79%   Direction: 200°SSW
Pressure: 30.03"   Gusts: NA
Location:  39.0164°N, 119.925°W
Report Text: KTVL 210653Z AUTO 20009KT 8SM -RA FEW019 BKN026 OVC033 05/02 A3003 RMK AO2 SLP131 P0000 T00500017
Loading
Personal Weather Stations






























Interactive Weather Map
Tropical Storm Tracking
New forecast layout! Learn more

10-Day Weather Forecast

Advertisements
Track Severe Weather on mobile